Klondike, Georgia
Current Conditions -  °F | °C
As of 1:55 AM on Monday 24 Nov 2014 (Local Time) from KPXE Reporting Station
Scattered Clouds Scattered Clouds  
Wind Chill: 66°   Ceiling: Unl
Heat Index: 66°   Visibility: 10mi
Dew Point: 61°   Wind: 8mph
Humidity: 85%   Direction: 220°SW
Pressure: 29.81"   Gusts: NA
Location:  32.2568°N, 83.5362°W
Report Text: KPXE 240655Z AUTO 22007KT 10SM SCT017 19/16 A2981 RMK AO2 T01880162
Loading
Personal Weather Stations






























Interactive Weather Map New forecast layout! Learn more

10-Day Weather Forecast

Advertisements
Track Severe Weather on mobile